Time;durP1;ratioP1;P1;durP2;ratioP2;P2;SDS_P1;SDS_P2;PMS_P1;PMS_P2;Temp;Humidity;BMP_temperature;BMP_pressure;BME280_temperature;BME280_humidity;BME280_pressure;Samples;Min_cycle;Max_cycle;Signal;HPM_P1;HPM_P2
2021/03/26 00:01:21;;;;;;;10.60;4.10;;;;;;;20.46;34.81;100015.41;5029622;28;20037;-74
2021/03/26 00:03:50;;;;;;;11.52;3.22;;;;;;;20.54;34.65;100020.97;5031107;28;20021;-78
2021/03/26 00:06:23;;;;;;;15.93;3.85;;;;;;;20.40;34.80;100018.94;5031549;28;20049;-78
2021/03/26 00:08:49;;;;;;;10.25;3.50;;;;;;;20.46;34.70;100020.16;5032189;28;20032;-79
2021/03/26 00:11:16;;;;;;;13.45;3.58;;;;;;;20.43;34.65;100009.84;5032346;28;20026;-76
2021/03/26 00:13:42;;;;;;;11.13;3.45;;;;;;;20.54;34.41;100016.19;5032045;28;20398;-80
2021/03/26 00:16:10;;;;;;;17.67;4.05;;;;;;;20.55;34.41;100003.91;5032174;28;20104;-79
2021/03/26 00:18:36;;;;;;;13.25;4.03;;;;;;;20.50;34.75;99996.00;5031195;28;20028;-73
2021/03/26 00:21:02;;;;;;;15.02;3.70;;;;;;;20.32;35.07;99993.19;5031076;28;20028;-75
2021/03/26 00:23:28;;;;;;;10.45;3.30;;;;;;;20.47;34.63;99985.69;5034472;28;20391;-78
2021/03/26 00:25:55;;;;;;;10.07;2.95;;;;;;;20.37;34.83;99972.59;5050547;28;20024;-76
2021/03/26 00:28:21;;;;;;;11.45;4.10;;;;;;;20.38;35.01;99974.97;5050414;28;20037;-74
2021/03/26 00:30:46;;;;;;;14.57;4.22;;;;;;;20.27;35.26;99960.31;5050173;28;20135;-79
2021/03/26 00:33:12;;;;;;;15.23;3.90;;;;;;;20.24;35.24;99950.78;5051564;28;20049;-78
2021/03/26 00:35:39;;;;;;;14.45;3.80;;;;;;;20.08;35.64;99949.63;5051658;28;20108;-73
2021/03/26 00:38:05;;;;;;;17.27;4.60;;;;;;;20.25;35.52;99946.03;5051832;28;20059;-78
2021/03/26 00:40:32;;;;;;;16.25;3.58;;;;;;;20.35;35.05;99956.34;5051729;28;20056;-77
2021/03/26 00:42:58;;;;;;;10.70;2.88;;;;;;;20.16;35.49;99951.19;5051668;28;20053;-77
2021/03/26 00:45:35;;;;;;;8.88;2.92;;;;;;;19.84;36.15;99937.34;5050444;28;20479;-79
2021/03/26 00:48:02;;;;;;;17.95;3.55;;;;;;;20.22;35.42;99944.06;5051848;28;20052;-78
2021/03/26 00:50:43;;;;;;;11.73;3.17;;;;;;;20.14;35.67;99942.50;5051712;28;20391;-77
2021/03/26 00:53:12;;;;;;;12.73;3.38;;;;;;;20.28;35.31;99941.69;5051788;28;20047;-78
2021/03/26 00:55:38;;;;;;;10.70;3.40;;;;;;;20.26;35.23;99917.13;5051935;28;20032;-76
2021/03/26 00:58:04;;;;;;;9.82;3.78;;;;;;;20.47;34.94;99911.56;5055364;28;20025;-77
2021/03/26 01:00:31;;;;;;;10.63;3.83;;;;;;;20.21;35.86;99915.53;5055617;28;20091;-79
2021/03/26 01:02:57;;;;;;;11.60;3.75;;;;;;;20.33;35.54;99906.03;5055325;28;20100;-77
2021/03/26 01:05:27;;;;;;;13.20;3.95;;;;;;;20.31;35.96;99904.81;5055373;28;20064;-78
2021/03/26 01:07:52;;;;;;;14.18;3.78;;;;;;;20.25;36.16;99907.19;5055024;28;20025;-78
2021/03/26 01:10:22;;;;;;;8.30;3.00;;;;;;;20.23;36.45;99907.59;5055523;28;20036;-78
2021/03/26 01:12:48;;;;;;;12.65;3.95;;;;;;;20.19;36.27;99887.41;5054418;28;20048;-79
2021/03/26 01:15:17;;;;;;;12.27;3.38;;;;;;;20.19;36.42;99889.41;5052539;28;20033;-76
2021/03/26 01:17:43;;;;;;;12.80;3.35;;;;;;;20.26;36.48;99883.06;5054657;28;20026;-79
2021/03/26 01:20:13;;;;;;;16.55;3.85;;;;;;;20.24;36.44;99872.34;5052896;28;20031;-78
2021/03/26 01:22:39;;;;;;;9.23;3.58;;;;;;;20.38;36.05;99871.53;5054867;28;20021;-79
2021/03/26 01:25:14;;;;;;;15.35;3.95;;;;;;;20.25;36.24;99865.59;5054483;28;20124;-78
2021/03/26 01:27:39;;;;;;;7.47;3.45;;;;;;;20.05;36.60;99859.69;5054270;28;20021;-78
2021/03/26 01:30:08;;;;;;;14.98;4.93;;;;;;;19.96;36.90;99853.78;5054903;28;20083;-74
2021/03/26 01:32:34;;;;;;;15.65;4.05;;;;;;;20.07;36.64;99854.53;5054665;28;20547;-79
2021/03/26 01:34:59;;;;;;;12.27;4.25;;;;;;;20.18;36.34;99860.09;5053442;28;20132;-78
2021/03/26 01:37:25;;;;;;;8.63;2.65;;;;;;;20.22;36.54;99841.44;5053810;28;20037;-79
2021/03/26 01:39:50;;;;;;;14.23;4.25;;;;;;;20.15;36.46;99836.69;5054272;28;20545;-77
2021/03/26 01:42:30;;;;;;;15.00;4.38;;;;;;;20.16;36.85;99834.72;5054718;28;20501;-79
2021/03/26 01:44:56;;;;;;;13.80;4.15;;;;;;;20.29;36.16;99821.22;5054572;28;20037;-72
2021/03/26 01:47:22;;;;;;;20.38;4.55;;;;;;;20.14;36.77;99814.91;5054534;28;20116;-78
2021/03/26 01:49:47;;;;;;;13.98;4.28;;;;;;;20.23;36.76;99804.19;5054130;28;20108;-71
2021/03/26 01:52:13;;;;;;;14.30;4.53;;;;;;;20.16;36.79;99809.75;5053679;28;20410;-70
2021/03/26 01:54:39;;;;;;;11.65;4.45;;;;;;;20.09;37.16;99801.44;5054172;28;20471;-71
2021/03/26 01:57:05;;;;;;;20.75;5.63;;;;;;;20.13;37.16;99789.16;5054511;28;20025;-74
2021/03/26 01:59:30;;;;;;;18.08;4.63;;;;;;;20.20;37.14;99788.34;5054251;28;20029;-71
2021/03/26 02:02:00;;;;;;;23.20;5.18;;;;;;;20.28;36.79;99776.03;5054254;28;20471;-71
2021/03/26 02:04:30;;;;;;;14.57;3.83;;;;;;;20.11;37.30;99772.16;5054150;28;20032;-71
2021/03/26 02:06:56;;;;;;;;;;;;;;;20.16;37.45;99774.50;5053923;28;20458;-71
2021/03/26 02:09:28;;;;;;;18.30;4.60;;;;;;;20.22;37.24;99761.78;5054057;28;19913;-71
2021/03/26 02:12:01;;;;;;;21.65;5.95;;;;;;;20.41;36.80;99749.44;5053579;28;20037;-72
2021/03/26 02:14:32;;;;;;;19.60;6.07;;;;;;;20.39;36.94;99751.03;5053017;28;20037;-70
2021/03/26 02:16:58;;;;;;;16.30;4.70;;;;;;;20.34;37.16;99735.59;5054240;28;20078;-78
2021/03/26 02:19:33;;;;;;;17.48;5.35;;;;;;;20.25;37.21;99749.09;5053877;28;20100;-78
2021/03/26 02:22:00;;;;;;;17.25;6.07;;;;;;;20.17;37.52;99734.47;5053283;28;20028;-70
2021/03/26 02:24:28;;;;;;;17.02;5.88;;;;;;;20.15;37.41;99733.28;5053187;28;20514;-78
2021/03/26 02:26:58;;;;;;;22.23;6.07;;;;;;;20.19;37.59;99720.22;5053722;28;20029;-71
2021/03/26 02:29:28;;;;;;;23.13;6.15;;;;;;;20.42;37.09;99717.72;5052344;28;20487;-71
2021/03/26 02:31:57;;;;;;;14.90;5.57;;;;;;;20.26;37.26;99709.09;5052675;28;20024;-74
2021/03/26 02:34:24;;;;;;;16.73;5.85;;;;;;;20.31;37.30;99694.78;5052168;28;20033;-78
2021/03/26 02:36:55;;;;;;;23.10;6.47;;;;;;;20.38;37.14;99686.44;5053709;28;20057;-72
2021/03/26 02:39:26;;;;;;;22.92;6.03;;;;;;;20.35;37.24;99681.69;5053403;28;20047;-76
2021/03/26 02:41:56;;;;;;;18.02;5.60;;;;;;;19.99;38.19;99681.06;5053545;28;20090;-77
2021/03/26 02:44:24;;;;;;;;;;;;;;;19.92;38.01;99665.25;5054013;28;20079;-76
2021/03/26 02:47:23;;;;;;;20.60;5.28;;;;;;;20.16;37.37;99662.78;5053354;28;19951;-70
2021/03/26 02:50:06;;;;;;;22.45;5.82;;;;;;;20.20;37.47;99666.31;5053344;28;20040;-77
2021/03/26 02:52:43;;;;;;;22.55;5.40;;;;;;;20.41;36.81;99662.66;5053460;28;20121;-71
2021/03/26 02:55:26;;;;;;;15.15;4.75;;;;;;;20.18;37.69;99657.63;5053183;28;20036;-70
2021/03/26 02:58:10;;;;;;;14.40;5.80;;;;;;;20.35;37.26;99659.50;5053168;28;20025;-70
2021/03/26 03:00:59;;;;;;;23.88;5.70;;;;;;;20.41;37.26;99652.34;5053190;28;20024;-70
2021/03/26 03:03:27;;;;;;;18.48;5.13;;;;;;;20.46;37.01;99643.59;5052574;28;20049;-74
2021/03/26 03:06:25;;;;;;;20.45;4.80;;;;;;;20.11;38.19;99629.94;5052770;28;20051;-71
2021/03/26 03:08:55;;;;;;;25.15;6.43;;;;;;;20.19;37.89;99629.47;5050660;28;20052;-70
2021/03/26 03:11:43;;;;;;;21.15;6.25;;;;;;;20.22;38.01;99614.00;5051857;28;20170;-71
2021/03/26 03:14:17;;;;;;;14.98;4.53;;;;;;;20.24;37.99;99628.25;5051387;28;20052;-70
2021/03/26 03:16:48;;;;;;;22.10;5.97;;;;;;;20.31;37.97;99619.88;5052879;28;20407;-70
2021/03/26 03:19:35;;;;;;;14.02;4.25;;;;;;;20.33;38.16;99611.16;5052580;28;20036;-70
2021/03/26 03:22:17;;;;;;;27.27;5.03;;;;;;;20.31;38.03;99597.69;5052103;28;20037;-71
2021/03/26 03:24:46;;;;;;;13.93;4.60;;;;;;;20.14;38.59;99591.06;5049098;28;20029;-71
2021/03/26 03:27:38;;;;;;;11.05;4.50;;;;;;;20.01;38.83;99592.72;5032094;28;20508;-72
2021/03/26 03:30:13;;;;;;;14.65;3.78;;;;;;;20.20;38.34;99597.78;5032556;28;20032;-72
2021/03/26 03:33:03;;;;;;;14.60;4.55;;;;;;;20.17;38.43;99603.34;5032296;28;20065;-78
2021/03/26 03:35:35;;;;;;;6.93;3.10;;;;;;;20.36;37.91;99591.72;5047535;28;20084;-77
2021/03/26 03:38:10;;;;;;;15.65;4.07;;;;;;;20.50;37.83;99604.75;5031951;28;20021;-77
2021/03/26 03:40:56;;;;;;;12.43;4.10;;;;;;;20.39;38.19;99604.78;5032683;28;20018;-71
2021/03/26 03:43:41;;;;;;;11.05;3.20;;;;;;;20.21;38.51;99601.34;5032363;28;20092;-71
2021/03/26 03:46:21;;;;;;;13.27;3.30;;;;;;;20.36;38.30;99596.50;5032650;28;20049;-71
2021/03/26 03:49:12;;;;;;;13.20;3.20;;;;;;;20.45;38.09;99591.31;5032445;28;20036;-71
2021/03/26 03:51:45;;;;;;;8.45;3.42;;;;;;;20.35;38.24;99590.16;5032360;28;20032;-71
2021/03/26 03:54:46;;;;;;;12.02;3.60;;;;;;;20.37;38.22;99570.31;5032396;28;20025;-71
2021/03/26 03:57:19;;;;;;;13.82;3.80;;;;;;;20.32;38.22;99577.09;5032756;28;20047;-71
2021/03/26 04:00:14;;;;;;;10.88;3.20;;;;;;;20.28;38.40;99564.44;5047726;28;20034;-71
2021/03/26 04:02:49;;;;;;;12.02;4.30;;;;;;;20.05;39.06;99567.78;5032041;28;20531;-71
2021/03/26 04:05:21;;;;;;;9.77;3.45;;;;;;;20.02;38.93;99574.88;5031979;28;20033;-71
2021/03/26 04:08:01;;;;;;;12.75;3.35;;;;;;;19.60;40.14;99576.69;5030766;28;20535;-72
2021/03/26 04:10:31;;;;;;;;;;;;;;;17.52;42.71;99598.22;5032679;28;20057;-78
2021/03/26 04:13:02;;;;;;;7.22;1.67;;;;;;;17.73;41.70;99626.00;5032070;28;19917;-71
2021/03/26 04:15:38;;;;;;;2.63;0.63;;;;;;;17.05;41.70;99657.88;5031424;28;20053;-71
2021/03/26 04:18:09;;;;;;;1.45;0.50;;;;;;;16.80;41.95;99682.53;5031081;28;20101;-70
2021/03/26 04:20:42;;;;;;;2.92;0.82;;;;;;;17.58;39.74;99696.91;5032232;28;20025;-70
2021/03/26 04:23:19;;;;;;;0.30;0.28;;;;;;;17.61;39.16;99700.88;5032289;28;20032;-71
2021/03/26 04:26:10;;;;;;;1.20;0.35;;;;;;;17.37;39.32;99713.34;5029707;28;20064;-71
2021/03/26 04:28:41;;;;;;;0.43;0.30;;;;;;;16.94;39.65;99714.97;5029744;28;20125;-71
2021/03/26 04:31:12;;;;;;;0.35;0.20;;;;;;;16.19;40.16;99714.16;5033219;28;20025;-71
2021/03/26 04:33:38;;;;;;;0.10;0.10;;;;;;;16.57;39.50;99740.56;5034698;28;20480;-71
2021/03/26 04:36:06;;;;;;;1.00;0.25;;;;;;;15.91;40.41;99748.41;5034692;28;20033;-71
2021/03/26 04:38:35;;;;;;;2.25;0.40;;;;;;;15.57;40.94;99746.69;5034475;28;20099;-71
2021/03/26 04:41:07;;;;;;;1.33;0.40;;;;;;;15.70;40.70;99745.34;5035076;28;20037;-70
2021/03/26 04:43:51;;;;;;;1.52;0.40;;;;;;;15.79;40.65;99732.09;5035700;28;20029;-70
2021/03/26 04:46:51;;;;;;;1.13;0.32;;;;;;;15.55;40.99;99736.84;5035693;28;20392;-71
2021/03/26 04:49:21;;;;;;;;;;;;;;;15.27;41.56;99742.72;5033656;28;20175;-71
2021/03/26 04:52:02;;;;;;;0.80;0.40;;;;;;;15.19;41.72;99734.72;5035773;28;20394;-71
2021/03/26 04:54:36;;;;;;;0.52;0.30;;;;;;;15.23;42.06;99743.81;5035581;28;20026;-70
2021/03/26 04:57:20;;;;;;;0.55;0.30;;;;;;;15.74;40.53;99763.53;5035308;28;20100;-70
2021/03/26 04:59:53;;;;;;;0.95;0.52;;;;;;;15.13;41.50;99755.47;5035552;28;20022;-70
2021/03/26 05:02:21;;;;;;;0.40;0.28;;;;;;;14.99;41.64;99762.28;5034953;28;20022;-71
2021/03/26 05:04:51;;;;;;;0.70;0.55;;;;;;;15.78;39.74;99782.84;5034509;28;20036;-71
2021/03/26 05:07:23;;;;;;;0.93;0.40;;;;;;;15.31;40.49;99778.56;5035641;28;20480;-70
2021/03/26 05:09:53;;;;;;;0.98;0.52;;;;;;;15.40;39.94;99795.59;5035067;28;20033;-70
2021/03/26 05:12:26;;;;;;;0.40;0.30;;;;;;;15.03;40.65;99783.56;5034795;28;20029;-71
2021/03/26 05:14:53;;;;;;;2.17;0.50;;;;;;;15.11;40.68;99788.03;5034118;28;20025;-71
2021/03/26 05:17:32;;;;;;;0.45;0.40;;;;;;;15.24;40.52;99778.44;5033987;28;20388;-70
2021/03/26 05:20:13;;;;;;;1.58;0.55;;;;;;;15.70;39.32;99781.16;5035245;28;20021;-71
2021/03/26 05:22:54;;;;;;;1.45;0.50;;;;;;;15.92;38.82;99785.81;5035184;28;20132;-71
2021/03/26 05:25:55;;;;;;;3.00;0.77;;;;;;;16.09;38.60;99779.75;5050454;28;20028;-70
2021/03/26 05:28:26;;;;;;;3.92;0.65;;;;;;;16.19;38.34;99780.28;5032710;28;20037;-70
2021/03/26 05:30:53;;;;;;;0.93;0.50;;;;;;;16.33;38.26;99774.97;5034542;28;20124;-70
2021/03/26 05:33:46;;;;;;;0.85;0.40;;;;;;;16.38;37.83;99780.13;5033966;28;20091;-71
2021/03/26 05:36:25;;;;;;;0.73;0.30;;;;;;;16.40;38.17;99788.00;5033085;28;20052;-70
2021/03/26 05:38:58;;;;;;;1.45;0.70;;;;;;;16.46;37.97;99792.81;5035091;28;20022;-70
2021/03/26 05:41:42;;;;;;;1.10;0.57;;;;;;;16.40;37.80;99780.56;5034856;28;20025;-70
2021/03/26 05:44:33;;;;;;;0.52;0.47;;;;;;;16.36;37.84;99779.72;5034985;28;20041;-71
2021/03/26 05:47:30;;;;;;;3.10;0.50;;;;;;;16.41;37.72;99776.63;5034779;28;20018;-70
2021/03/26 05:50:14;;;;;;;0.88;0.47;;;;;;;16.44;37.77;99789.66;5034673;28;20068;-70
2021/03/26 05:52:54;;;;;;;3.95;0.70;;;;;;;16.36;37.64;99796.25;5050034;28;20028;-70
2021/03/26 05:55:22;;;;;;;2.30;0.70;;;;;;;16.40;37.63;99801.81;5034534;28;20033;-71
2021/03/26 05:58:14;;;;;;;1.67;0.63;;;;;;;16.33;37.69;99802.53;5034362;28;20030;-70
2021/03/26 06:00:43;;;;;;;1.88;0.52;;;;;;;16.38;37.36;99811.25;5034251;28;20029;-71
2021/03/26 06:03:23;;;;;;;0.57;0.32;;;;;;;16.28;37.38;99814.66;5032971;28;20028;-71
2021/03/26 06:06:24;;;;;;;2.03;0.65;;;;;;;16.43;37.22;99818.41;5033397;28;20037;-71
2021/03/26 06:09:10;;;;;;;1.52;0.75;;;;;;;16.53;36.99;99816.94;5034011;28;20480;-71
2021/03/26 06:12:07;;;;;;;5.68;0.95;;;;;;;16.29;37.36;99824.53;5034276;28;20025;-71
2021/03/26 06:14:40;;;;;;;5.35;0.95;;;;;;;16.44;37.08;99824.72;5033910;28;20484;-70
2021/03/26 06:17:24;;;;;;;1.67;0.80;;;;;;;16.23;37.33;99834.28;5034194;28;20597;-70
2021/03/26 06:20:08;;;;;;;3.42;1.70;;;;;;;16.22;37.47;99840.16;5034070;28;20025;-71
2021/03/26 06:22:56;;;;;;;4.55;1.00;;;;;;;16.27;37.16;99837.88;5033930;28;20029;-70
2021/03/26 06:25:39;;;;;;;8.85;1.08;;;;;;;16.17;37.26;99838.53;5034004;28;20021;-70
2021/03/26 06:28:44;;;;;;;7.40;1.17;;;;;;;16.25;36.88;99847.72;5049218;28;20464;-72
2021/03/26 06:31:32;;;;;;;1.95;0.75;;;;;;;16.10;37.12;99854.97;5033608;28;20042;-70
2021/03/26 06:34:22;;;;;;;5.28;0.90;;;;;;;16.22;36.95;99853.94;5033741;28;20072;-75
2021/03/26 06:37:00;;;;;;;5.80;1.38;;;;;;;16.07;37.00;99856.50;5033273;28;20026;-73
2021/03/26 06:39:44;;;;;;;4.45;1.08;;;;;;;16.05;37.31;99856.06;5047392;28;20021;-73
2021/03/26 06:42:45;;;;;;;3.90;1.05;;;;;;;15.95;37.42;99858.69;5031841;28;20517;-74
2021/03/26 06:45:41;;;;;;;4.65;1.20;;;;;;;15.86;37.67;99866.38;5033913;28;20372;-71
2021/03/26 06:48:28;;;;;;;10.73;3.40;;;;;;;15.85;37.70;99875.81;5033816;28;20372;-70
2021/03/26 06:51:18;;;;;;;4.70;1.67;;;;;;;15.77;38.01;99885.94;5033422;28;20104;-71
2021/03/26 06:54:13;;;;;;;4.55;1.58;;;;;;;15.65;38.19;99892.44;5032817;28;20080;-71
2021/03/26 06:56:50;;;;;;;6.15;1.50;;;;;;;15.91;37.72;99897.19;5032333;28;20514;-71
2021/03/26 06:59:30;;;;;;;4.22;1.30;;;;;;;15.99;37.53;99904.41;5033408;28;20057;-71
2021/03/26 07:02:01;;;;;;;3.97;1.20;;;;;;;15.94;38.03;99906.66;5031551;28;20108;-71
2021/03/26 07:04:27;;;;;;;6.82;2.55;;;;;;;15.93;37.85;99900.34;5047110;28;20048;-71
2021/03/26 07:07:04;;;;;;;5.57;1.55;;;;;;;16.05;37.78;99913.94;5037952;28;20029;-72
2021/03/26 07:09:54;;;;;;;7.03;2.13;;;;;;;15.73;38.17;99918.13;5049288;28;20090;-71
2021/03/26 07:12:47;;;;;;;3.97;1.27;;;;;;;15.68;38.23;99921.19;5053732;28;20498;-71
2021/03/26 07:15:40;;;;;;;6.13;2.25;;;;;;;15.95;37.58;99925.59;5052856;28;20418;-71
2021/03/26 07:18:25;;;;;;;8.43;1.88;;;;;;;15.94;37.69;99931.44;5043748;28;20048;-72
2021/03/26 07:20:50;;;;;;;6.13;1.13;;;;;;;15.99;37.59;99925.66;5052302;28;20506;-71
2021/03/26 07:23:29;;;;;;;4.50;1.20;;;;;;;15.62;38.31;99936.41;5052480;28;20017;-71
2021/03/26 07:26:25;;;;;;;5.13;1.52;;;;;;;15.55;38.40;99935.09;5050162;28;20029;-71
2021/03/26 07:29:29;;;;;;;9.52;2.38;;;;;;;15.52;38.49;99933.09;5049353;28;20017;-71
2021/03/26 07:32:18;;;;;;;9.52;2.45;;;;;;;15.87;37.58;99934.91;5050427;28;20021;-73
2021/03/26 07:35:18;;;;;;;8.82;1.65;;;;;;;15.81;38.06;99942.69;5051780;28;20029;-78
2021/03/26 07:37:55;;;;;;;7.07;1.58;;;;;;;16.05;37.58;99944.25;5047817;28;20041;-77
2021/03/26 07:40:49;;;;;;;9.30;2.47;;;;;;;15.70;37.96;99947.19;5050709;28;20036;-71
2021/03/26 07:43:21;;;;;;;3.45;0.95;;;;;;;15.70;38.23;99951.91;5051547;28;20021;-71
2021/03/26 07:46:08;;;;;;;5.53;1.42;;;;;;;15.68;38.25;99965.25;5052152;28;20041;-71
2021/03/26 07:48:40;;;;;;;8.02;1.98;;;;;;;15.75;37.94;99962.63;5048895;28;20394;-70
2021/03/26 07:51:08;;;;;;;7.93;1.85;;;;;;;16.13;37.49;99964.47;5051733;28;20020;-73
2021/03/26 07:53:44;;;;;;;11.68;2.22;;;;;;;16.20;37.59;99963.78;5051756;28;20545;-71
2021/03/26 07:56:49;;;;;;;7.20;1.23;;;;;;;16.44;36.95;99951.53;5031291;28;20029;-71
2021/03/26 07:59:36;;;;;;;7.45;1.48;;;;;;;16.59;36.81;99969.88;5031060;28;20029;-70
2021/03/26 08:02:39;;;;;;;6.40;1.60;;;;;;;16.63;36.74;99976.25;5032544;28;20032;-71
2021/03/26 08:05:42;;;;;;;5.88;1.80;;;;;;;16.43;37.16;99974.78;5031934;28;20117;-71
2021/03/26 08:08:34;;;;;;;7.82;1.63;;;;;;;16.64;36.40;99981.41;5049793;28;20083;-72
2021/03/26 08:10:59;;;;;;;5.57;1.05;;;;;;;16.64;36.53;99978.66;5056450;28;20485;-71
2021/03/26 08:13:35;;;;;;;6.10;1.30;;;;;;;16.87;36.28;99991.59;5056149;28;20048;-71
2021/03/26 08:16:16;;;;;;;6.80;1.48;;;;;;;16.63;36.71;99992.81;5056390;28;20079;-71
2021/03/26 08:19:21;;;;;;;4.25;1.48;;;;;;;16.52;36.36;99991.84;5056281;28;20063;-74
2021/03/26 08:21:55;;;;;;;9.13;1.88;;;;;;;16.69;36.54;100004.28;5073856;28;20039;-72
2021/03/26 08:25:03;;;;;;;6.35;1.38;;;;;;;16.84;35.94;100006.91;5060521;28;20119;-72
2021/03/26 08:27:40;;;;;;;4.07;1.23;;;;;;;16.79;35.88;100018.28;5055863;28;20082;-76
2021/03/26 08:30:32;;;;;;;5.78;1.13;;;;;;;16.23;36.37;100016.19;5059051;28;20139;-74
2021/03/26 08:33:07;;;;;;;13.07;2.42;;;;;;;16.79;35.82;100020.25;5055165;28;20025;-73
2021/03/26 08:36:17;;;;;;;4.35;1.60;;;;;;;16.89;35.72;100036.16;5055649;28;20571;-72
2021/03/26 08:39:08;;;;;;;3.63;1.00;;;;;;;16.92;35.13;100032.66;5040064;28;20400;-72
2021/03/26 08:41:37;;;;;;;14.07;2.70;;;;;;;16.98;35.05;100033.13;5054289;28;20085;-78
2021/03/26 08:44:03;;;;;;;4.18;1.45;;;;;;;16.94;35.28;100037.81;5054581;28;20387;-77
2021/03/26 08:46:37;;;;;;;6.15;1.77;;;;;;;16.90;34.48;100049.56;5055814;28;20485;-80
2021/03/26 08:49:24;;;;;;;20.60;3.35;;;;;;;17.20;34.56;100051.56;5055649;28;20479;-73
2021/03/26 08:52:17;;;;;;;24.45;5.00;;;;;;;17.18;34.23;100049.19;5055567;28;20033;-76
2021/03/26 08:55:10;;;;;;;10.77;1.85;;;;;;;17.36;34.35;100051.38;5055572;28;20033;-71
2021/03/26 08:58:03;;;;;;;16.60;2.65;;;;;;;17.35;34.22;100060.84;5055685;28;20029;-80
2021/03/26 09:00:57;;;;;;;7.22;1.45;;;;;;;17.40;34.25;100057.75;5055618;28;20032;-80
2021/03/26 09:03:25;;;;;;;11.38;2.67;;;;;;;17.55;34.20;100055.97;5055338;28;20383;-72
2021/03/26 09:06:11;;;;;;;19.40;4.28;;;;;;;17.65;34.20;100053.31;5055508;28;20021;-76
2021/03/26 09:09:14;;;;;;;20.20;3.75;;;;;;;17.27;34.06;100059.94;5055251;28;20361;-72
2021/03/26 09:12:05;;;;;;;5.25;1.42;;;;;;;17.41;33.59;100059.34;5055324;28;20032;-79
2021/03/26 09:14:55;;;;;;;7.07;1.98;;;;;;;17.46;33.84;100070.06;5055108;28;20127;-81
2021/03/26 09:17:53;;;;;;;7.50;2.35;;;;;;;17.02;33.82;100067.91;5054684;28;20372;-73
2021/03/26 09:20:47;;;;;;;5.50;1.63;;;;;;;16.85;33.93;100060.97;5054915;28;20037;-79
2021/03/26 09:23:30;;;;;;;15.45;2.72;;;;;;;17.30;33.51;100074.97;5054624;28;20021;-80
2021/03/26 09:26:08;;;;;;;4.68;1.23;;;;;;;17.22;32.96;100067.75;5055033;28;20541;-80
2021/03/26 09:28:41;;;;;;;10.25;2.85;;;;;;;17.08;33.87;100068.38;5055294;28;20049;-79
2021/03/26 09:31:25;;;;;;;4.22;1.65;;;;;;;17.55;33.33;100076.09;5055201;28;20025;-73
2021/03/26 09:33:57;;;;;;;10.10;2.20;;;;;;;17.62;33.46;100069.88;5055056;28;20447;-78
2021/03/26 09:36:32;;;;;;;7.45;1.85;;;;;;;18.09;32.95;100082.25;5054738;28;20025;-81
2021/03/26 09:39:06;;;;;;;19.05;4.30;;;;;;;17.72;33.42;100083.03;5054283;28;20021;-78
2021/03/26 09:41:54;;;;;;;7.30;1.13;;;;;;;17.91;32.95;100082.03;5054513;28;20025;-73
2021/03/26 09:44:45;;;;;;;6.53;1.60;;;;;;;18.36;32.36;100089.22;5054581;28;20036;-72
2021/03/26 09:47:17;;;;;;;6.22;1.88;;;;;;;18.63;31.88;100098.16;5051292;28;20037;-73
2021/03/26 09:50:01;;;;;;;8.75;1.48;;;;;;;17.89;32.48;100100.97;5053509;28;20029;-73
2021/03/26 09:52:32;;;;;;;27.92;4.22;;;;;;;18.26;31.72;100110.06;5053739;28;20082;-71
2021/03/26 09:55:23;;;;;;;5.57;1.45;;;;;;;17.97;31.43;100105.41;5053680;28;20028;-71
2021/03/26 09:57:54;;;;;;;11.90;1.90;;;;;;;18.11;31.53;100119.38;5053771;28;20037;-73
2021/03/26 10:00:34;;;;;;;4.53;1.52;;;;;;;17.99;31.52;100105.84;5053660;28;20040;-79
2021/03/26 10:03:12;;;;;;;6.95;1.95;;;;;;;17.86;31.82;100107.28;5052217;28;20110;-77
2021/03/26 10:06:01;;;;;;;5.10;1.20;;;;;;;17.93;31.95;100108.16;5054238;28;20434;-79
2021/03/26 10:08:48;;;;;;;10.05;1.80;;;;;;;18.15;31.73;100102.84;5054110;28;20036;-71
2021/03/26 10:11:33;;;;;;;4.50;1.52;;;;;;;18.14;31.98;100102.06;5053982;28;20033;-70
2021/03/26 10:14:08;;;;;;;7.93;1.20;;;;;;;18.02;32.37;100099.56;5053873;28;20435;-71
2021/03/26 10:16:49;;;;;;;13.95;2.92;;;;;;;18.12;32.36;100109.91;5053414;28;20413;-80
2021/03/26 10:19:39;;;;;;;4.82;1.60;;;;;;;17.68;32.52;100107.84;5054340;28;20036;-79
2021/03/26 10:22:24;;;;;;;13.90;4.25;;;;;;;17.90;32.26;100108.88;5053466;28;20514;-75
2021/03/26 10:24:58;;;;;;;25.67;5.55;;;;;;;17.88;32.24;100116.75;5050363;28;20498;-74
2021/03/26 10:27:35;;;;;;;9.30;2.22;;;;;;;18.26;31.86;100115.59;5053443;28;20021;-73
2021/03/26 10:30:22;;;;;;;11.77;3.35;;;;;;;18.07;32.60;100107.50;5053829;28;20333;-73
2021/03/26 10:32:49;;;;;;;21.60;4.35;;;;;;;18.33;32.49;100114.88;5053814;28;20021;-72
2021/03/26 10:35:17;;;;;;;11.25;1.55;;;;;;;18.52;32.67;100116.66;5053450;28;20029;-73
2021/03/26 10:37:53;;;;;;;14.95;2.40;;;;;;;18.41;33.13;100122.06;5053533;28;20074;-73
2021/03/26 10:40:59;;;;;;;2.67;1.10;;;;;;;18.81;32.36;100124.00;5053367;28;20028;-73
2021/03/26 10:43:32;;;;;;;12.07;1.85;;;;;;;18.96;31.90;100101.97;5071077;28;20033;-73
2021/03/26 10:46:14;;;;;;;10.00;1.75;;;;;;;18.61;31.80;100103.28;5071151;28;20063;-73
2021/03/26 10:48:59;;;;;;;7.75;2.00;;;;;;;18.32;31.97;100112.50;5051762;28;20076;-73
2021/03/26 10:52:01;;;;;;;9.07;1.20;;;;;;;18.46;31.79;100110.66;5053382;28;20025;-71
2021/03/26 10:54:48;;;;;;;5.63;0.90;;;;;;;18.56;31.58;100100.84;5055675;28;20044;-71
2021/03/26 10:57:16;;;;;;;5.35;1.63;;;;;;;18.84;31.63;100111.41;5053139;28;20029;-77
2021/03/26 10:59:55;;;;;;;3.40;1.10;;;;;;;19.04;31.32;100103.63;5052274;28;20071;-72
2021/03/26 11:02:39;;;;;;;39.15;4.00;;;;;;;19.15;30.52;100103.69;5051347;28;20028;-72
2021/03/26 11:05:18;;;;;;;37.35;5.55;;;;;;;19.28;31.12;100103.00;5051290;28;20025;-72
2021/03/26 11:08:05;;;;;;;5.88;1.77;;;;;;;19.68;30.86;100104.00;5051558;28;20043;-72
2021/03/26 11:10:44;;;;;;;10.18;2.25;;;;;;;19.92;30.07;100110.81;5049878;28;20390;-71
2021/03/26 11:13:15;;;;;;;6.35;1.10;;;;;;;19.72;29.91;100104.00;5050857;28;20106;-71
2021/03/26 11:15:51;;;;;;;6.68;1.20;;;;;;;19.00;30.57;100116.66;5052626;28;20451;-72
2021/03/26 11:18:25;;;;;;;2.92;1.17;;;;;;;18.09;31.64;100124.50;5052827;28;20035;-72
2021/03/26 11:21:15;;;;;;;4.10;1.00;;;;;;;18.14;32.13;100113.13;5052751;28;20069;-71
2021/03/26 11:23:41;;;;;;;4.78;1.95;;;;;;;18.51;31.89;100132.44;5052847;28;20154;-69
2021/03/26 11:26:22;;;;;;;3.25;1.33;;;;;;;18.72;32.34;100136.59;5052859;28;20025;-70
2021/03/26 11:28:53;;;;;;;6.18;1.48;;;;;;;18.69;32.53;100137.38;5052721;28;20483;-69
2021/03/26 11:31:22;;;;;;;5.10;1.10;;;;;;;18.39;33.13;100134.69;5052977;28;20383;-69
2021/03/26 11:34:22;;;;;;;23.55;4.05;;;;;;;18.15;33.72;100124.97;5052936;28;20435;-70
2021/03/26 11:36:47;;;;;;;12.90;3.70;;;;;;;18.73;32.96;100125.13;5052667;28;20471;-70
2021/03/26 11:39:12;;;;;;;11.55;2.08;;;;;;;18.73;32.78;100141.75;5052166;28;20027;-69
2021/03/26 11:41:57;;;;;;;1.25;0.38;;;;;;;18.08;33.21;100130.44;5052639;28;20025;-71
2021/03/26 11:44:29;;;;;;;6.72;1.75;;;;;;;18.15;32.70;100141.56;5052527;28;20036;-71
2021/03/26 11:46:59;;;;;;;14.45;2.28;;;;;;;17.88;33.14;100132.56;5052584;28;20108;-71
2021/03/26 11:49:29;;;;;;;20.67;2.53;;;;;;;18.26;32.73;100131.41;5052557;28;20075;-70
2021/03/26 11:52:09;;;;;;;7.75;1.52;;;;;;;18.41;32.19;100121.28;5052478;28;20025;-70
2021/03/26 11:54:47;;;;;;;1.35;0.55;;;;;;;18.45;31.90;100111.84;5052416;28;20029;-70
2021/03/26 11:57:35;;;;;;;14.10;2.20;;;;;;;18.54;32.40;100108.75;5052340;28;20487;-71
2021/03/26 12:00:12;;;;;;;22.88;4.20;;;;;;;18.75;32.42;100108.97;5052674;28;20040;-70
2021/03/26 12:02:48;;;;;;;9.05;1.98;;;;;;;19.34;30.72;100106.97;5052278;28;20032;-70
2021/03/26 12:05:28;;;;;;;2.13;0.80;;;;;;;19.54;30.48;100090.84;5052378;28;20094;-71
2021/03/26 12:08:12;;;;;;;5.07;0.90;;;;;;;19.12;30.72;100108.03;5052262;28;20021;-70
2021/03/26 12:10:43;;;;;;;2.47;0.88;;;;;;;19.57;30.31;100111.47;5051871;28;20021;-76
2021/03/26 12:13:23;;;;;;;6.13;1.92;;;;;;;19.32;30.52;100098.25;5052142;28;20048;-71
2021/03/26 12:15:58;;;;;;;;;;;;;;;19.31;30.31;100107.75;5050845;28;20037;-71
2021/03/26 12:18:34;;;;;;;10.07;2.05;;;;;;;19.74;30.34;100105.22;5052309;28;19916;-70
2021/03/26 12:21:29;;;;;;;11.82;2.00;;;;;;;20.14;29.60;100115.22;5052271;28;20037;-73